sensor_id;sensor_type;location;lat;lon;timestamp;P1;durP1;ratioP1;P2;durP2;ratioP2
77123;SDS011;66079;47.646;19.130;2023-05-23T00:01:53;7.78;;;4.88;;
77123;SDS011;66079;47.646;19.130;2023-05-23T00:04:56;6.13;;;4.30;;
77123;SDS011;66079;47.646;19.130;2023-05-23T00:07:59;7.82;;;4.57;;
77123;SDS011;66079;47.646;19.130;2023-05-23T00:11:02;8.27;;;4.70;;
77123;SDS011;66079;47.646;19.130;2023-05-23T00:14:05;7.47;;;4.60;;
77123;SDS011;66079;47.646;19.130;2023-05-23T00:17:09;6.13;;;4.95;;
77123;SDS011;66079;47.646;19.130;2023-05-23T00:20:12;8.60;;;4.90;;
77123;SDS011;66079;47.646;19.130;2023-05-23T00:23:14;6.63;;;4.80;;
77123;SDS011;66079;47.646;19.130;2023-05-23T00:26:20;6.53;;;4.47;;
77123;SDS011;66079;47.646;19.130;2023-05-23T00:29:23;5.38;;;4.20;;
77123;SDS011;66079;47.646;19.130;2023-05-23T00:32:26;7.50;;;4.80;;
77123;SDS011;66079;47.646;19.130;2023-05-23T00:35:28;7.07;;;4.40;;
77123;SDS011;66079;47.646;19.130;2023-05-23T00:38:31;7.25;;;4.15;;
77123;SDS011;66079;47.646;19.130;2023-05-23T00:41:34;7.83;;;4.10;;
77123;SDS011;66079;47.646;19.130;2023-05-23T00:44:37;5.82;;;4.30;;
77123;SDS011;66079;47.646;19.130;2023-05-23T00:47:40;6.32;;;4.03;;
77123;SDS011;66079;47.646;19.130;2023-05-23T00:50:44;6.78;;;4.25;;
77123;SDS011;66079;47.646;19.130;2023-05-23T00:53:47;6.60;;;4.38;;
77123;SDS011;66079;47.646;19.130;2023-05-23T00:56:50;6.83;;;3.87;;
77123;SDS011;66079;47.646;19.130;2023-05-23T00:59:52;5.57;;;4.00;;
77123;SDS011;66079;47.646;19.130;2023-05-23T01:02:55;7.45;;;4.60;;
77123;SDS011;66079;47.646;19.130;2023-05-23T01:05:58;5.00;;;4.30;;
77123;SDS011;66079;47.646;19.130;2023-05-23T01:09:01;6.20;;;4.60;;
77123;SDS011;66079;47.646;19.130;2023-05-23T01:15:30;6.65;;;4.32;;
77123;SDS011;66079;47.646;19.130;2023-05-23T01:18:42;7.60;;;4.68;;
77123;SDS011;66079;47.646;19.130;2023-05-23T01:21:55;5.93;;;4.15;;
77123;SDS011;66079;47.646;19.130;2023-05-23T01:28:17;7.77;;;4.37;;
77123;SDS011;66079;47.646;19.130;2023-05-23T01:31:23;8.38;;;4.43;;
77123;SDS011;66079;47.646;19.130;2023-05-23T01:34:30;6.03;;;4.20;;
77123;SDS011;66079;47.646;19.130;2023-05-23T01:37:36;6.28;;;4.45;;
77123;SDS011;66079;47.646;19.130;2023-05-23T01:40:38;7.15;;;4.32;;
77123;SDS011;66079;47.646;19.130;2023-05-23T01:43:41;5.27;;;4.10;;
77123;SDS011;66079;47.646;19.130;2023-05-23T01:46:43;7.07;;;4.18;;
77123;SDS011;66079;47.646;19.130;2023-05-23T01:49:48;7.63;;;4.15;;
77123;SDS011;66079;47.646;19.130;2023-05-23T01:52:53;7.80;;;4.47;;
77123;SDS011;66079;47.646;19.130;2023-05-23T01:55:57;6.70;;;4.75;;
77123;SDS011;66079;47.646;19.130;2023-05-23T01:59:04;6.20;;;5.10;;
77123;SDS011;66079;47.646;19.130;2023-05-23T02:02:07;6.38;;;4.18;;
77123;SDS011;66079;47.646;19.130;2023-05-23T02:05:09;7.85;;;4.55;;
77123;SDS011;66079;47.646;19.130;2023-05-23T02:08:13;6.70;;;4.53;;
77123;SDS011;66079;47.646;19.130;2023-05-23T02:11:15;5.07;;;4.03;;
77123;SDS011;66079;47.646;19.130;2023-05-23T02:14:18;9.57;;;4.53;;
77123;SDS011;66079;47.646;19.130;2023-05-23T02:17:21;10.27;;;4.75;;
77123;SDS011;66079;47.646;19.130;2023-05-23T02:20:25;7.95;;;4.60;;
77123;SDS011;66079;47.646;19.130;2023-05-23T02:23:27;5.00;;;4.40;;
77123;SDS011;66079;47.646;19.130;2023-05-23T02:26:30;7.28;;;4.57;;
77123;SDS011;66079;47.646;19.130;2023-05-23T02:29:33;5.40;;;4.30;;
77123;SDS011;66079;47.646;19.130;2023-05-23T02:32:36;7.10;;;4.88;;
77123;SDS011;66079;47.646;19.130;2023-05-23T02:35:39;6.72;;;4.18;;
77123;SDS011;66079;47.646;19.130;2023-05-23T02:38:44;5.43;;;4.20;;
77123;SDS011;66079;47.646;19.130;2023-05-23T02:41:47;12.35;;;5.15;;
77123;SDS011;66079;47.646;19.130;2023-05-23T02:44:49;10.93;;;4.50;;
77123;SDS011;66079;47.646;19.130;2023-05-23T02:47:52;9.82;;;4.50;;
77123;SDS011;66079;47.646;19.130;2023-05-23T02:50:55;5.50;;;4.65;;
77123;SDS011;66079;47.646;19.130;2023-05-23T02:53:58;7.05;;;4.50;;
77123;SDS011;66079;47.646;19.130;2023-05-23T02:57:00;6.57;;;4.90;;
77123;SDS011;66079;47.646;19.130;2023-05-23T03:00:05;7.93;;;5.00;;
77123;SDS011;66079;47.646;19.130;2023-05-23T03:03:08;7.03;;;5.20;;
77123;SDS011;66079;47.646;19.130;2023-05-23T03:06:11;8.40;;;4.95;;
77123;SDS011;66079;47.646;19.130;2023-05-23T03:09:16;7.15;;;4.57;;
77123;SDS011;66079;47.646;19.130;2023-05-23T03:12:19;6.00;;;4.47;;
77123;SDS011;66079;47.646;19.130;2023-05-23T03:15:21;14.63;;;5.40;;
77123;SDS011;66079;47.646;19.130;2023-05-23T03:18:24;5.97;;;4.30;;
77123;SDS011;66079;47.646;19.130;2023-05-23T03:21:26;7.53;;;4.43;;
77123;SDS011;66079;47.646;19.130;2023-05-23T03:24:29;6.13;;;4.68;;
77123;SDS011;66079;47.646;19.130;2023-05-23T03:27:32;7.18;;;5.03;;
77123;SDS011;66079;47.646;19.130;2023-05-23T03:30:35;9.20;;;5.13;;
77123;SDS011;66079;47.646;19.130;2023-05-23T03:33:38;7.35;;;4.68;;
77123;SDS011;66079;47.646;19.130;2023-05-23T03:36:41;7.18;;;5.10;;
77123;SDS011;66079;47.646;19.130;2023-05-23T03:39:44;6.35;;;4.80;;
77123;SDS011;66079;47.646;19.130;2023-05-23T03:42:47;9.18;;;4.90;;
77123;SDS011;66079;47.646;19.130;2023-05-23T03:45:53;7.70;;;4.90;;
77123;SDS011;66079;47.646;19.130;2023-05-23T03:48:56;5.85;;;4.35;;
77123;SDS011;66079;47.646;19.130;2023-05-23T03:51:58;6.63;;;4.97;;
77123;SDS011;66079;47.646;19.130;2023-05-23T03:55:01;12.57;;;5.28;;
77123;SDS011;66079;47.646;19.130;2023-05-23T03:58:04;10.38;;;4.65;;
77123;SDS011;66079;47.646;19.130;2023-05-23T04:01:07;8.03;;;4.70;;
77123;SDS011;66079;47.646;19.130;2023-05-23T04:04:10;7.15;;;4.80;;
77123;SDS011;66079;47.646;19.130;2023-05-23T04:07:13;9.63;;;4.75;;
77123;SDS011;66079;47.646;19.130;2023-05-23T04:10:18;8.15;;;4.78;;
77123;SDS011;66079;47.646;19.130;2023-05-23T04:13:21;9.48;;;5.00;;
77123;SDS011;66079;47.646;19.130;2023-05-23T04:16:25;6.83;;;4.53;;
77123;SDS011;66079;47.646;19.130;2023-05-23T04:19:28;5.93;;;4.60;;
77123;SDS011;66079;47.646;19.130;2023-05-23T04:22:31;7.28;;;4.82;;
77123;SDS011;66079;47.646;19.130;2023-05-23T04:25:34;7.40;;;4.80;;
77123;SDS011;66079;47.646;19.130;2023-05-23T04:29:11;6.70;;;4.70;;
77123;SDS011;66079;47.646;19.130;2023-05-23T04:32:14;7.50;;;4.60;;
77123;SDS011;66079;47.646;19.130;2023-05-23T04:35:18;5.55;;;4.13;;
77123;SDS011;66079;47.646;19.130;2023-05-23T04:38:20;6.85;;;4.70;;
77123;SDS011;66079;47.646;19.130;2023-05-23T04:41:26;6.40;;;4.53;;
77123;SDS011;66079;47.646;19.130;2023-05-23T04:44:53;11.13;;;5.30;;
77123;SDS011;66079;47.646;19.130;2023-05-23T04:48:16;7.03;;;4.70;;
77123;SDS011;66079;47.646;19.130;2023-05-23T04:51:23;9.38;;;4.95;;
77123;SDS011;66079;47.646;19.130;2023-05-23T04:54:30;7.45;;;5.05;;
77123;SDS011;66079;47.646;19.130;2023-05-23T04:57:34;7.93;;;4.70;;
77123;SDS011;66079;47.646;19.130;2023-05-23T05:00:39;5.28;;;4.53;;
77123;SDS011;66079;47.646;19.130;2023-05-23T05:03:42;8.67;;;4.57;;
77123;SDS011;66079;47.646;19.130;2023-05-23T05:06:45;6.82;;;4.38;;
77123;SDS011;66079;47.646;19.130;2023-05-23T05:09:50;6.13;;;4.45;;
77123;SDS011;66079;47.646;19.130;2023-05-23T05:12:53;6.78;;;4.80;;
77123;SDS011;66079;47.646;19.130;2023-05-23T05:15:56;7.88;;;4.72;;
77123;SDS011;66079;47.646;19.130;2023-05-23T05:19:01;7.70;;;5.13;;
77123;SDS011;66079;47.646;19.130;2023-05-23T05:22:05;7.80;;;4.43;;
77123;SDS011;66079;47.646;19.130;2023-05-23T05:25:09;8.98;;;4.75;;
77123;SDS011;66079;47.646;19.130;2023-05-23T05:28:12;7.53;;;4.43;;
77123;SDS011;66079;47.646;19.130;2023-05-23T05:31:20;10.77;;;4.50;;
77123;SDS011;66079;47.646;19.130;2023-05-23T05:34:23;7.40;;;4.07;;
77123;SDS011;66079;47.646;19.130;2023-05-23T05:37:27;7.18;;;4.90;;
77123;SDS011;66079;47.646;19.130;2023-05-23T05:40:30;8.18;;;4.43;;
77123;SDS011;66079;47.646;19.130;2023-05-23T05:43:34;6.45;;;4.05;;
77123;SDS011;66079;47.646;19.130;2023-05-23T05:46:37;7.63;;;4.03;;
77123;SDS011;66079;47.646;19.130;2023-05-23T05:49:40;8.37;;;4.10;;
77123;SDS011;66079;47.646;19.130;2023-05-23T05:52:44;6.85;;;4.07;;
77123;SDS011;66079;47.646;19.130;2023-05-23T05:55:47;7.68;;;4.88;;
77123;SDS011;66079;47.646;19.130;2023-05-23T05:58:50;9.60;;;4.07;;
77123;SDS011;66079;47.646;19.130;2023-05-23T06:01:52;11.77;;;4.50;;
77123;SDS011;66079;47.646;19.130;2023-05-23T06:04:55;10.57;;;4.43;;
77123;SDS011;66079;47.646;19.130;2023-05-23T06:07:58;8.35;;;3.90;;
77123;SDS011;66079;47.646;19.130;2023-05-23T06:11:02;6.93;;;4.00;;
77123;SDS011;66079;47.646;19.130;2023-05-23T06:14:05;15.93;;;5.90;;
77123;SDS011;66079;47.646;19.130;2023-05-23T06:17:11;7.32;;;4.07;;
77123;SDS011;66079;47.646;19.130;2023-05-23T06:20:16;7.70;;;4.00;;
77123;SDS011;66079;47.646;19.130;2023-05-23T06:23:20;9.20;;;3.97;;
77123;SDS011;66079;47.646;19.130;2023-05-23T06:26:23;6.57;;;4.20;;
77123;SDS011;66079;47.646;19.130;2023-05-23T06:29:26;7.50;;;3.92;;
77123;SDS011;66079;47.646;19.130;2023-05-23T06:32:29;9.23;;;4.68;;
77123;SDS011;66079;47.646;19.130;2023-05-23T06:35:33;7.60;;;4.53;;
77123;SDS011;66079;47.646;19.130;2023-05-23T06:38:36;7.35;;;4.80;;
77123;SDS011;66079;47.646;19.130;2023-05-23T06:41:41;10.55;;;4.90;;
77123;SDS011;66079;47.646;19.130;2023-05-23T06:44:45;10.57;;;4.10;;
77123;SDS011;66079;47.646;19.130;2023-05-23T06:47:48;10.90;;;4.60;;
77123;SDS011;66079;47.646;19.130;2023-05-23T06:50:50;6.80;;;4.80;;
77123;SDS011;66079;47.646;19.130;2023-05-23T06:53:54;6.75;;;4.80;;
77123;SDS011;66079;47.646;19.130;2023-05-23T06:56:57;9.23;;;4.47;;
77123;SDS011;66079;47.646;19.130;2023-05-23T07:00:00;7.50;;;4.50;;
77123;SDS011;66079;47.646;19.130;2023-05-23T07:03:03;6.80;;;3.92;;
77123;SDS011;66079;47.646;19.130;2023-05-23T07:06:07;6.30;;;3.80;;
77123;SDS011;66079;47.646;19.130;2023-05-23T07:09:11;7.93;;;3.60;;
77123;SDS011;66079;47.646;19.130;2023-05-23T07:12:15;5.63;;;4.00;;
77123;SDS011;66079;47.646;19.130;2023-05-23T07:15:20;8.73;;;4.53;;
77123;SDS011;66079;47.646;19.130;2023-05-23T07:18:43;5.45;;;4.00;;
77123;SDS011;66079;47.646;19.130;2023-05-23T07:21:45;6.07;;;3.90;;
77123;SDS011;66079;47.646;19.130;2023-05-23T07:24:51;9.68;;;4.72;;
77123;SDS011;66079;47.646;19.130;2023-05-23T07:27:56;9.63;;;4.60;;
77123;SDS011;66079;47.646;19.130;2023-05-23T07:30:59;8.38;;;4.70;;
77123;SDS011;66079;47.646;19.130;2023-05-23T07:34:03;9.73;;;5.18;;
77123;SDS011;66079;47.646;19.130;2023-05-23T07:37:13;13.33;;;5.50;;
77123;SDS011;66079;47.646;19.130;2023-05-23T07:40:18;8.70;;;5.20;;
77123;SDS011;66079;47.646;19.130;2023-05-23T07:43:20;8.57;;;5.45;;
77123;SDS011;66079;47.646;19.130;2023-05-23T07:46:23;12.65;;;5.90;;
77123;SDS011;66079;47.646;19.130;2023-05-23T07:49:26;10.32;;;6.13;;
77123;SDS011;66079;47.646;19.130;2023-05-23T07:52:29;7.07;;;5.60;;
77123;SDS011;66079;47.646;19.130;2023-05-23T07:55:33;8.43;;;5.03;;
77123;SDS011;66079;47.646;19.130;2023-05-23T07:58:36;9.63;;;5.28;;
77123;SDS011;66079;47.646;19.130;2023-05-23T08:01:39;8.85;;;5.15;;
77123;SDS011;66079;47.646;19.130;2023-05-23T08:04:42;6.80;;;4.57;;
77123;SDS011;66079;47.646;19.130;2023-05-23T08:07:46;11.43;;;4.90;;
77123;SDS011;66079;47.646;19.130;2023-05-23T08:10:49;7.50;;;5.22;;
77123;SDS011;66079;47.646;19.130;2023-05-23T08:13:58;9.75;;;4.57;;
77123;SDS011;66079;47.646;19.130;2023-05-23T08:17:11;7.65;;;4.90;;
77123;SDS011;66079;47.646;19.130;2023-05-23T08:20:15;7.93;;;4.45;;
77123;SDS011;66079;47.646;19.130;2023-05-23T08:23:19;7.40;;;4.70;;
77123;SDS011;66079;47.646;19.130;2023-05-23T08:26:22;7.22;;;4.50;;
77123;SDS011;66079;47.646;19.130;2023-05-23T08:29:25;10.27;;;4.70;;
77123;SDS011;66079;47.646;19.130;2023-05-23T08:32:29;10.70;;;4.38;;
77123;SDS011;66079;47.646;19.130;2023-05-23T08:35:32;9.73;;;4.82;;
77123;SDS011;66079;47.646;19.130;2023-05-23T08:38:39;5.73;;;4.47;;
77123;SDS011;66079;47.646;19.130;2023-05-23T08:42:06;6.38;;;4.45;;
77123;SDS011;66079;47.646;19.130;2023-05-23T08:45:09;8.20;;;4.63;;
77123;SDS011;66079;47.646;19.130;2023-05-23T08:48:12;5.35;;;4.40;;
77123;SDS011;66079;47.646;19.130;2023-05-23T08:51:24;6.53;;;4.50;;
77123;SDS011;66079;47.646;19.130;2023-05-23T08:54:29;6.57;;;4.20;;
77123;SDS011;66079;47.646;19.130;2023-05-23T08:57:31;6.28;;;4.55;;
77123;SDS011;66079;47.646;19.130;2023-05-23T09:00:49;6.70;;;4.55;;
77123;SDS011;66079;47.646;19.130;2023-05-23T09:03:54;7.80;;;4.32;;
77123;SDS011;66079;47.646;19.130;2023-05-23T09:07:04;8.20;;;4.35;;
77123;SDS011;66079;47.646;19.130;2023-05-23T09:10:08;7.97;;;3.50;;
77123;SDS011;66079;47.646;19.130;2023-05-23T09:13:12;6.80;;;3.70;;
77123;SDS011;66079;47.646;19.130;2023-05-23T09:16:15;7.78;;;3.88;;
77123;SDS011;66079;47.646;19.130;2023-05-23T09:19:28;6.32;;;3.92;;
77123;SDS011;66079;47.646;19.130;2023-05-23T09:22:37;7.15;;;4.38;;
77123;SDS011;66079;47.646;19.130;2023-05-23T09:25:46;4.87;;;3.57;;
77123;SDS011;66079;47.646;19.130;2023-05-23T09:28:50;4.78;;;3.58;;
77123;SDS011;66079;47.646;19.130;2023-05-23T09:31:58;5.90;;;4.40;;
77123;SDS011;66079;47.646;19.130;2023-05-23T09:35:05;8.27;;;4.10;;
77123;SDS011;66079;47.646;19.130;2023-05-23T09:38:09;6.15;;;4.80;;
77123;SDS011;66079;47.646;19.130;2023-05-23T09:41:12;5.37;;;4.00;;
77123;SDS011;66079;47.646;19.130;2023-05-23T09:44:16;5.50;;;4.10;;
77123;SDS011;66079;47.646;19.130;2023-05-23T09:47:24;5.40;;;3.78;;
77123;SDS011;66079;47.646;19.130;2023-05-23T09:50:32;5.32;;;3.90;;
77123;SDS011;66079;47.646;19.130;2023-05-23T09:53:38;10.68;;;4.07;;
77123;SDS011;66079;47.646;19.130;2023-05-23T09:56:42;5.13;;;4.00;;
77123;SDS011;66079;47.646;19.130;2023-05-23T09:59:52;8.32;;;4.50;;
77123;SDS011;66079;47.646;19.130;2023-05-23T10:06:11;7.63;;;4.60;;
77123;SDS011;66079;47.646;19.130;2023-05-23T10:09:19;7.95;;;4.57;;
77123;SDS011;66079;47.646;19.130;2023-05-23T10:15:48;7.07;;;4.57;;
77123;SDS011;66079;47.646;19.130;2023-05-23T10:18:52;6.13;;;4.60;;
77123;SDS011;66079;47.646;19.130;2023-05-23T10:21:59;8.23;;;4.30;;
77123;SDS011;66079;47.646;19.130;2023-05-23T10:25:04;7.47;;;4.32;;
77123;SDS011;66079;47.646;19.130;2023-05-23T10:28:09;6.03;;;4.30;;
77123;SDS011;66079;47.646;19.130;2023-05-23T10:31:14;6.15;;;4.30;;
77123;SDS011;66079;47.646;19.130;2023-05-23T10:37:45;7.93;;;4.60;;
77123;SDS011;66079;47.646;19.130;2023-05-23T10:44:26;8.17;;;4.50;;
77123;SDS011;66079;47.646;19.130;2023-05-23T10:47:33;9.07;;;4.93;;
77123;SDS011;66079;47.646;19.130;2023-05-23T10:50:37;11.70;;;5.18;;
77123;SDS011;66079;47.646;19.130;2023-05-23T10:53:44;5.72;;;4.55;;
77123;SDS011;66079;47.646;19.130;2023-05-23T10:57:00;7.82;;;4.70;;
77123;SDS011;66079;47.646;19.130;2023-05-23T11:00:05;7.53;;;5.00;;
77123;SDS011;66079;47.646;19.130;2023-05-23T11:03:15;7.55;;;5.28;;
77123;SDS011;66079;47.646;19.130;2023-05-23T11:06:28;7.18;;;5.25;;
77123;SDS011;66079;47.646;19.130;2023-05-23T11:13:06;6.80;;;4.75;;
77123;SDS011;66079;47.646;19.130;2023-05-23T11:16:22;11.00;;;4.73;;
77123;SDS011;66079;47.646;19.130;2023-05-23T11:19:32;8.05;;;4.90;;
77123;SDS011;66079;47.646;19.130;2023-05-23T11:22:35;6.75;;;4.68;;
77123;SDS011;66079;47.646;19.130;2023-05-23T11:25:46;6.10;;;4.45;;
77123;SDS011;66079;47.646;19.130;2023-05-23T11:28:57;9.68;;;5.13;;
77123;SDS011;66079;47.646;19.130;2023-05-23T11:32:07;5.73;;;4.07;;
77123;SDS011;66079;47.646;19.130;2023-05-23T11:35:18;6.38;;;4.15;;
77123;SDS011;66079;47.646;19.130;2023-05-23T11:38:22;5.35;;;4.32;;
77123;SDS011;66079;47.646;19.130;2023-05-23T11:41:26;10.40;;;4.47;;
77123;SDS011;66079;47.646;19.130;2023-05-23T11:44:29;8.43;;;4.10;;
77123;SDS011;66079;47.646;19.130;2023-05-23T11:47:31;6.27;;;4.20;;
77123;SDS011;66079;47.646;19.130;2023-05-23T11:50:43;5.45;;;4.45;;
77123;SDS011;66079;47.646;19.130;2023-05-23T11:53:52;6.68;;;4.40;;
77123;SDS011;66079;47.646;19.130;2023-05-23T11:56:55;6.00;;;4.70;;
77123;SDS011;66079;47.646;19.130;2023-05-23T11:59:58;7.95;;;4.75;;
77123;SDS011;66079;47.646;19.130;2023-05-23T12:03:05;6.67;;;4.90;;
77123;SDS011;66079;47.646;19.130;2023-05-23T12:06:09;7.03;;;5.18;;
77123;SDS011;66079;47.646;19.130;2023-05-23T12:09:15;8.68;;;4.75;;
77123;SDS011;66079;47.646;19.130;2023-05-23T12:12:18;5.97;;;4.75;;
77123;SDS011;66079;47.646;19.130;2023-05-23T12:15:25;5.22;;;4.72;;
77123;SDS011;66079;47.646;19.130;2023-05-23T12:18:31;9.07;;;5.10;;
77123;SDS011;66079;47.646;19.130;2023-05-23T12:21:41;6.55;;;5.32;;
77123;SDS011;66079;47.646;19.130;2023-05-23T12:24:47;7.55;;;4.97;;
77123;SDS011;66079;47.646;19.130;2023-05-23T12:27:50;7.55;;;4.60;;
77123;SDS011;66079;47.646;19.130;2023-05-23T12:30:57;5.88;;;4.85;;
77123;SDS011;66079;47.646;19.130;2023-05-23T12:33:59;4.87;;;4.37;;
77123;SDS011;66079;47.646;19.130;2023-05-23T12:37:02;6.15;;;4.70;;
77123;SDS011;66079;47.646;19.130;2023-05-23T12:40:21;5.05;;;4.22;;
77123;SDS011;66079;47.646;19.130;2023-05-23T12:43:24;8.52;;;4.75;;
77123;SDS011;66079;47.646;19.130;2023-05-23T12:46:26;7.50;;;4.47;;
77123;SDS011;66079;47.646;19.130;2023-05-23T12:49:29;5.63;;;4.00;;
77123;SDS011;66079;47.646;19.130;2023-05-23T12:52:32;6.88;;;3.92;;
77123;SDS011;66079;47.646;19.130;2023-05-23T12:55:34;6.22;;;4.32;;
77123;SDS011;66079;47.646;19.130;2023-05-23T12:58:37;7.15;;;4.45;;
77123;SDS011;66079;47.646;19.130;2023-05-23T13:01:40;7.28;;;4.05;;
77123;SDS011;66079;47.646;19.130;2023-05-23T13:04:43;6.57;;;4.20;;
77123;SDS011;66079;47.646;19.130;2023-05-23T13:07:46;7.28;;;4.32;;
77123;SDS011;66079;47.646;19.130;2023-05-23T13:10:48;5.25;;;4.20;;
77123;SDS011;66079;47.646;19.130;2023-05-23T13:13:51;5.80;;;4.22;;
77123;SDS011;66079;47.646;19.130;2023-05-23T13:16:54;7.28;;;4.50;;
77123;SDS011;66079;47.646;19.130;2023-05-23T13:19:56;4.70;;;4.20;;
77123;SDS011;66079;47.646;19.130;2023-05-23T13:22:59;7.10;;;4.20;;
77123;SDS011;66079;47.646;19.130;2023-05-23T13:26:02;7.05;;;4.38;;
77123;SDS011;66079;47.646;19.130;2023-05-23T13:29:04;7.45;;;4.43;;
77123;SDS011;66079;47.646;19.130;2023-05-23T13:32:07;8.02;;;4.78;;
77123;SDS011;66079;47.646;19.130;2023-05-23T13:35:10;8.03;;;4.47;;
77123;SDS011;66079;47.646;19.130;2023-05-23T13:38:12;5.40;;;4.65;;
77123;SDS011;66079;47.646;19.130;2023-05-23T13:41:15;5.35;;;4.05;;
77123;SDS011;66079;47.646;19.130;2023-05-23T13:44:18;6.60;;;3.80;;
77123;SDS011;66079;47.646;19.130;2023-05-23T13:47:20;5.95;;;3.90;;
77123;SDS011;66079;47.646;19.130;2023-05-23T13:50:23;5.33;;;3.33;;
77123;SDS011;66079;47.646;19.130;2023-05-23T13:53:26;5.03;;;4.00;;
77123;SDS011;66079;47.646;19.130;2023-05-23T13:56:28;5.07;;;4.10;;
77123;SDS011;66079;47.646;19.130;2023-05-23T13:59:31;5.65;;;3.85;;
77123;SDS011;66079;47.646;19.130;2023-05-23T14:02:33;5.90;;;4.00;;
77123;SDS011;66079;47.646;19.130;2023-05-23T14:05:36;5.73;;;3.87;;
77123;SDS011;66079;47.646;19.130;2023-05-23T14:08:39;6.20;;;3.85;;
77123;SDS011;66079;47.646;19.130;2023-05-23T14:11:41;6.82;;;4.13;;
77123;SDS011;66079;47.646;19.130;2023-05-23T14:14:45;4.93;;;3.78;;
77123;SDS011;66079;47.646;19.130;2023-05-23T14:17:47;6.55;;;4.15;;
77123;SDS011;66079;47.646;19.130;2023-05-23T14:20:50;5.03;;;3.87;;
77123;SDS011;66079;47.646;19.130;2023-05-23T14:23:52;4.25;;;3.65;;
77123;SDS011;66079;47.646;19.130;2023-05-23T14:26:55;6.05;;;3.83;;
77123;SDS011;66079;47.646;19.130;2023-05-23T14:29:58;6.03;;;4.10;;
77123;SDS011;66079;47.646;19.130;2023-05-23T14:33:01;5.05;;;4.07;;
77123;SDS011;66079;47.646;19.130;2023-05-23T14:36:03;4.87;;;3.80;;
77123;SDS011;66079;47.646;19.130;2023-05-23T14:39:06;4.68;;;3.60;;
77123;SDS011;66079;47.646;19.130;2023-05-23T14:42:11;5.22;;;3.88;;
77123;SDS011;66079;47.646;19.130;2023-05-23T14:45:14;4.63;;;4.20;;
77123;SDS011;66079;47.646;19.130;2023-05-23T14:48:20;5.22;;;4.07;;
77123;SDS011;66079;47.646;19.130;2023-05-23T14:51:22;5.77;;;3.90;;
77123;SDS011;66079;47.646;19.130;2023-05-23T14:54:45;5.35;;;4.10;;
77123;SDS011;66079;47.646;19.130;2023-05-23T14:57:47;5.85;;;3.83;;
77123;SDS011;66079;47.646;19.130;2023-05-23T15:00:50;5.20;;;3.88;;
77123;SDS011;66079;47.646;19.130;2023-05-23T15:03:53;5.25;;;3.80;;
77123;SDS011;66079;47.646;19.130;2023-05-23T15:06:56;6.63;;;4.00;;
77123;SDS011;66079;47.646;19.130;2023-05-23T15:09:59;4.28;;;3.85;;
77123;SDS011;66079;47.646;19.130;2023-05-23T15:13:02;7.55;;;3.85;;
77123;SDS011;66079;47.646;19.130;2023-05-23T15:16:05;4.45;;;3.60;;
77123;SDS011;66079;47.646;19.130;2023-05-23T15:19:08;8.82;;;4.28;;
77123;SDS011;66079;47.646;19.130;2023-05-23T15:22:11;4.83;;;3.80;;
77123;SDS011;66079;47.646;19.130;2023-05-23T15:25:34;4.45;;;3.90;;
77123;SDS011;66079;47.646;19.130;2023-05-23T15:28:51;8.27;;;4.28;;
77123;SDS011;66079;47.646;19.130;2023-05-23T15:31:54;5.88;;;4.07;;
77123;SDS011;66079;47.646;19.130;2023-05-23T15:34:56;5.88;;;3.80;;
77123;SDS011;66079;47.646;19.130;2023-05-23T15:37:59;5.37;;;3.80;;
77123;SDS011;66079;47.646;19.130;2023-05-23T15:41:01;4.88;;;3.72;;
77123;SDS011;66079;47.646;19.130;2023-05-23T15:44:06;3.97;;;3.35;;
77123;SDS011;66079;47.646;19.130;2023-05-23T15:47:08;7.03;;;3.30;;
77123;SDS011;66079;47.646;19.130;2023-05-23T15:50:11;4.90;;;3.40;;
77123;SDS011;66079;47.646;19.130;2023-05-23T15:53:15;4.37;;;3.17;;
77123;SDS011;66079;47.646;19.130;2023-05-23T15:56:18;4.85;;;3.00;;
77123;SDS011;66079;47.646;19.130;2023-05-23T15:59:20;3.88;;;3.05;;
77123;SDS011;66079;47.646;19.130;2023-05-23T16:02:23;4.60;;;3.00;;
77123;SDS011;66079;47.646;19.130;2023-05-23T16:05:25;4.80;;;2.92;;
77123;SDS011;66079;47.646;19.130;2023-05-23T16:08:28;5.73;;;2.90;;
77123;SDS011;66079;47.646;19.130;2023-05-23T16:11:31;3.97;;;3.00;;
77123;SDS011;66079;47.646;19.130;2023-05-23T16:14:33;5.50;;;3.22;;
77123;SDS011;66079;47.646;19.130;2023-05-23T16:17:36;3.88;;;2.78;;
77123;SDS011;66079;47.646;19.130;2023-05-23T16:20:38;6.05;;;3.10;;
77123;SDS011;66079;47.646;19.130;2023-05-23T16:23:41;3.73;;;2.97;;
77123;SDS011;66079;47.646;19.130;2023-05-23T16:26:44;4.18;;;3.28;;
77123;SDS011;66079;47.646;19.130;2023-05-23T16:29:46;4.93;;;3.60;;
77123;SDS011;66079;47.646;19.130;2023-05-23T16:32:49;3.38;;;3.05;;
77123;SDS011;66079;47.646;19.130;2023-05-23T16:35:51;6.90;;;3.97;;
77123;SDS011;66079;47.646;19.130;2023-05-23T16:38:54;3.93;;;3.37;;
77123;SDS011;66079;47.646;19.130;2023-05-23T16:41:56;4.80;;;3.40;;
77123;SDS011;66079;47.646;19.130;2023-05-23T16:45:01;9.35;;;3.80;;
77123;SDS011;66079;47.646;19.130;2023-05-23T16:48:04;5.47;;;3.92;;
77123;SDS011;66079;47.646;19.130;2023-05-23T16:51:07;5.43;;;3.78;;
77123;SDS011;66079;47.646;19.130;2023-05-23T16:54:10;4.77;;;3.63;;
77123;SDS011;66079;47.646;19.130;2023-05-23T16:57:12;4.85;;;3.60;;
77123;SDS011;66079;47.646;19.130;2023-05-23T17:00:15;5.53;;;3.60;;
77123;SDS011;66079;47.646;19.130;2023-05-23T17:03:19;8.05;;;4.05;;
77123;SDS011;66079;47.646;19.130;2023-05-23T17:06:22;5.50;;;3.88;;
77123;SDS011;66079;47.646;19.130;2023-05-23T17:09:24;5.27;;;4.10;;
77123;SDS011;66079;47.646;19.130;2023-05-23T17:12:27;5.05;;;3.50;;
77123;SDS011;66079;47.646;19.130;2023-05-23T17:15:29;10.25;;;3.40;;
77123;SDS011;66079;47.646;19.130;2023-05-23T17:18:32;5.97;;;2.80;;
77123;SDS011;66079;47.646;19.130;2023-05-23T17:21:34;4.57;;;2.90;;
77123;SDS011;66079;47.646;19.130;2023-05-23T17:24:37;4.60;;;2.77;;
77123;SDS011;66079;47.646;19.130;2023-05-23T17:27:40;6.45;;;2.90;;
77123;SDS011;66079;47.646;19.130;2023-05-23T17:30:42;7.20;;;3.20;;
77123;SDS011;66079;47.646;19.130;2023-05-23T17:33:45;11.00;;;3.30;;
77123;SDS011;66079;47.646;19.130;2023-05-23T17:36:48;4.60;;;3.13;;
77123;SDS011;66079;47.646;19.130;2023-05-23T17:39:51;5.53;;;3.27;;
77123;SDS011;66079;47.646;19.130;2023-05-23T17:42:57;5.90;;;3.30;;
77123;SDS011;66079;47.646;19.130;2023-05-23T17:46:00;5.38;;;3.45;;
77123;SDS011;66079;47.646;19.130;2023-05-23T17:49:02;5.45;;;3.45;;
77123;SDS011;66079;47.646;19.130;2023-05-23T17:52:05;6.03;;;3.78;;
77123;SDS011;66079;47.646;19.130;2023-05-23T17:55:10;4.50;;;3.33;;
77123;SDS011;66079;47.646;19.130;2023-05-23T17:58:13;5.03;;;3.70;;
77123;SDS011;66079;47.646;19.130;2023-05-23T18:01:15;6.03;;;3.80;;
77123;SDS011;66079;47.646;19.130;2023-05-23T18:04:18;4.05;;;2.83;;
77123;SDS011;66079;47.646;19.130;2023-05-23T18:07:21;4.53;;;3.33;;
77123;SDS011;66079;47.646;19.130;2023-05-23T18:10:24;5.77;;;3.63;;
77123;SDS011;66079;47.646;19.130;2023-05-23T18:13:26;5.07;;;3.50;;
77123;SDS011;66079;47.646;19.130;2023-05-23T18:16:29;6.95;;;3.40;;
77123;SDS011;66079;47.646;19.130;2023-05-23T18:19:32;4.53;;;3.25;;
77123;SDS011;66079;47.646;19.130;2023-05-23T18:22:35;5.72;;;3.22;;
77123;SDS011;66079;47.646;19.130;2023-05-23T18:25:38;4.70;;;3.13;;
77123;SDS011;66079;47.646;19.130;2023-05-23T18:28:40;5.72;;;3.03;;
77123;SDS011;66079;47.646;19.130;2023-05-23T18:31:43;4.75;;;2.95;;
77123;SDS011;66079;47.646;19.130;2023-05-23T18:34:46;4.05;;;2.92;;
77123;SDS011;66079;47.646;19.130;2023-05-23T18:37:49;5.60;;;3.72;;